Time;durP1;ratioP1;P1;durP2;ratioP2;P2;SDS_P1;SDS_P2;PMS_P1;PMS_P2;Temp;Humidity;BMP_temperature;BMP_pressure;BME280_temperature;BME280_humidity;BME280_pressure;Samples;Min_cycle;Max_cycle;Signal;HPM_P1;HPM_P2
2023/07/02 00:01:57;;;;;;;2.63;2.22;;;;;;;;;;5033871;28;20202;-86
2023/07/02 00:04:24;;;;;;;4.53;2.35;;;;;;;;;;5033461;28;20245;-86
2023/07/02 00:06:52;;;;;;;2.92;2.22;;;;;;;;;;5033509;28;20235;-87
2023/07/02 00:09:19;;;;;;;3.80;2.38;;;;;;;;;;5033203;28;20613;-86
2023/07/02 00:11:47;;;;;;;3.20;2.58;;;;;;;;;;5033725;28;20206;-85
2023/07/02 00:14:15;;;;;;;2.47;2.28;;;;;;;;;;5033102;28;20591;-86
2023/07/02 00:16:44;;;;;;;2.95;2.17;;;;;;;;;;5033547;28;20199;-86
2023/07/02 00:19:12;;;;;;;2.65;2.20;;;;;;;;;;5032811;28;20328;-86
2023/07/02 00:21:40;;;;;;;2.67;2.20;;;;;;;;;;5033748;28;20211;-86
2023/07/02 00:24:09;;;;;;;3.60;2.20;;;;;;;;;;5033245;28;20614;-86
2023/07/02 00:26:37;;;;;;;3.30;2.15;;;;;;;;;;5033217;28;20715;-86
2023/07/02 00:29:05;;;;;;;3.17;2.10;;;;;;;;;;5033184;28;20321;-85
2023/07/02 00:31:32;;;;;;;2.17;1.98;;;;;;;;;;5033734;28;20207;-86
2023/07/02 00:34:00;;;;;;;1.55;1.42;;;;;;;;;;5032748;28;20242;-86
2023/07/02 00:36:27;;;;;;;2.60;1.95;;;;;;;;;;5033334;28;20293;-86
2023/07/02 00:38:56;;;;;;;5.03;2.03;;;;;;;;;;5032614;28;20235;-86
2023/07/02 00:41:24;;;;;;;2.15;1.80;;;;;;;;;;5033078;28;20301;-86
2023/07/02 00:43:54;;;;;;;3.63;1.90;;;;;;;;;;5032979;28;20361;-86
2023/07/02 00:46:22;;;;;;;2.43;2.10;;;;;;;;;;5032300;28;20222;-86
2023/07/02 00:48:49;;;;;;;2.40;1.98;;;;;;;;;;5032577;28;20284;-86
2023/07/02 00:51:17;;;;;;;2.10;1.92;;;;;;;;;;5033048;28;20250;-86
2023/07/02 00:53:45;;;;;;;2.40;1.70;;;;;;;;;;5032006;28;20606;-87
2023/07/02 00:56:12;;;;;;;1.85;1.75;;;;;;;;;;5031574;28;20286;-86
2023/07/02 00:58:46;;;;;;;2.60;1.77;;;;;;;;;;5031642;28;20241;-85
2023/07/02 01:01:13;;;;;;;2.88;1.90;;;;;;;;;;5032168;28;20206;-85
2023/07/02 01:03:40;;;;;;;3.35;1.70;;;;;;;;;;5031930;28;20293;-85
2023/07/02 01:06:08;;;;;;;3.05;2.00;;;;;;;;;;5028130;28;20665;-86
2023/07/02 01:08:35;;;;;;;3.83;1.90;;;;;;;;;;5031698;28;20243;-86
2023/07/02 01:11:02;;;;;;;2.78;1.63;;;;;;;;;;5032363;28;20219;-86
2023/07/02 01:13:29;;;;;;;2.63;1.63;;;;;;;;;;5032035;28;20245;-86
2023/07/02 01:15:57;;;;;;;3.08;1.63;;;;;;;;;;5032330;28;20203;-86
2023/07/02 01:18:24;;;;;;;3.00;1.77;;;;;;;;;;5031685;28;20246;-85
2023/07/02 01:20:54;;;;;;;5.87;1.80;;;;;;;;;;5032485;28;20211;-85
2023/07/02 01:23:21;;;;;;;1.70;1.57;;;;;;;;;;5032074;28;20230;-87
2023/07/02 01:25:48;;;;;;;4.03;1.55;;;;;;;;;;5032252;28;20210;-86
2023/07/02 01:28:15;;;;;;;3.27;1.63;;;;;;;;;;5031374;28;20242;-86
2023/07/02 01:30:42;;;;;;;2.30;1.50;;;;;;;;;;5032566;28;20210;-86
2023/07/02 01:33:09;;;;;;;1.60;1.50;;;;;;;;;;5031947;28;20226;-86
2023/07/02 01:35:36;;;;;;;1.83;1.33;;;;;;;;;;5032094;28;20693;-86
2023/07/02 01:38:05;;;;;;;2.10;1.67;;;;;;;;;;5031672;28;20210;-86
2023/07/02 01:40:32;;;;;;;1.80;1.70;;;;;;;;;;5032381;28;20234;-86
2023/07/02 01:42:59;;;;;;;1.83;1.73;;;;;;;;;;5031886;28;20577;-86
2023/07/02 01:45:26;;;;;;;2.30;1.70;;;;;;;;;;5031865;28;20222;-86
2023/07/02 01:47:53;;;;;;;2.57;1.83;;;;;;;;;;5031077;28;20318;-86
2023/07/02 01:50:21;;;;;;;2.40;1.60;;;;;;;;;;5032146;28;20699;-86
2023/07/02 01:52:48;;;;;;;3.27;1.70;;;;;;;;;;5032021;28;20206;-86
2023/07/02 01:55:17;;;;;;;3.40;1.90;;;;;;;;;;5031637;28;20240;-86
2023/07/02 01:57:44;;;;;;;1.97;1.83;;;;;;;;;;5031771;28;20298;-86
2023/07/02 02:00:12;;;;;;;3.33;2.10;;;;;;;;;;5031278;28;20238;-86
2023/07/02 02:02:39;;;;;;;3.07;1.77;;;;;;;;;;5031941;28;20318;-85
2023/07/02 02:05:07;;;;;;;5.03;1.90;;;;;;;;;;5031126;28;20726;-86
2023/07/02 02:07:35;;;;;;;3.07;1.80;;;;;;;;;;5031386;28;20235;-86
2023/07/02 02:10:02;;;;;;;1.90;1.60;;;;;;;;;;5031282;28;20753;-85
2023/07/02 02:12:31;;;;;;;3.60;2.10;;;;;;;;;;5032529;28;20210;-86
2023/07/02 02:14:58;;;;;;;2.87;1.87;;;;;;;;;;5035450;28;20234;-86
2023/07/02 02:17:25;;;;;;;3.53;2.60;;;;;;;;;;5035948;28;20210;-86
2023/07/02 02:19:52;;;;;;;5.10;2.17;;;;;;;;;;5035254;28;20299;-85
2023/07/02 02:22:19;;;;;;;3.57;2.00;;;;;;;;;;5036096;28;20214;-86
2023/07/02 02:24:46;;;;;;;3.03;2.23;;;;;;;;;;5035376;28;20238;-86
2023/07/02 02:27:13;;;;;;;2.97;2.30;;;;;;;;;;5035471;28;20704;-85
2023/07/02 02:29:41;;;;;;;4.87;2.83;;;;;;;;;;5035373;28;20245;-86
2023/07/02 02:32:08;;;;;;;5.97;2.60;;;;;;;;;;5035953;28;20206;-85
2023/07/02 02:34:35;;;;;;;3.83;2.50;;;;;;;;;;5035052;28;20234;-86
2023/07/02 02:37:03;;;;;;;6.73;3.03;;;;;;;;;;5035965;28;20213;-86
2023/07/02 02:39:30;;;;;;;3.57;2.40;;;;;;;;;;5034869;28;20253;-85
2023/07/02 02:41:57;;;;;;;3.37;2.47;;;;;;;;;;5035251;28;20588;-84
2023/07/02 02:44:24;;;;;;;3.67;2.73;;;;;;;;;;5034807;28;20245;-85
2023/07/02 02:46:52;;;;;;;10.10;2.77;;;;;;;;;;5035005;28;20214;-85
2023/07/02 02:49:19;;;;;;;5.10;2.87;;;;;;;;;;5034680;28;20241;-85
2023/07/02 02:51:46;;;;;;;4.00;3.00;;;;;;;;;;5035269;28;20203;-86
2023/07/02 02:54:13;;;;;;;6.73;3.43;;;;;;;;;;5034967;28;20238;-86
2023/07/02 02:56:40;;;;;;;4.53;3.00;;;;;;;;;;5035275;28;20712;-85
2023/07/02 02:59:07;;;;;;;5.60;3.37;;;;;;;;;;5034519;28;20242;-85
2023/07/02 03:01:34;;;;;;;4.70;3.13;;;;;;;;;;5035238;28;20214;-85
2023/07/02 03:04:02;;;;;;;5.57;3.57;;;;;;;;;;5034482;28;20265;-85
2023/07/02 03:06:30;;;;;;;4.47;3.30;;;;;;;;;;5034786;28;20706;-86
2023/07/02 03:08:57;;;;;;;5.47;3.30;;;;;;;;;;5033870;28;20241;-86
2023/07/02 03:11:24;;;;;;;5.20;3.17;;;;;;;;;;5034951;28;20221;-86
2023/07/02 03:13:51;;;;;;;5.03;3.13;;;;;;;;;;5034149;28;20238;-85
2023/07/02 03:16:18;;;;;;;5.73;3.43;;;;;;;;;;5034722;28;20207;-86
2023/07/02 03:18:45;;;;;;;4.53;3.10;;;;;;;;;;5034104;28;20238;-86
2023/07/02 03:21:13;;;;;;;4.40;3.33;;;;;;;;;;5034552;28;20199;-86
2023/07/02 03:23:41;;;;;;;4.93;3.30;;;;;;;;;;5033901;28;20694;-85
2023/07/02 03:26:08;;;;;;;5.20;3.37;;;;;;;;;;5034827;28;20210;-86
2023/07/02 03:28:35;;;;;;;4.30;3.17;;;;;;;;;;5033988;28;20242;-86
2023/07/02 03:31:02;;;;;;;4.43;3.13;;;;;;;;;;5034365;28;20214;-85
2023/07/02 03:33:29;;;;;;;5.50;3.33;;;;;;;;;;5033683;28;20245;-86
2023/07/02 03:35:56;;;;;;;6.23;3.50;;;;;;;;;;5034095;28;20703;-86
2023/07/02 03:38:24;;;;;;;5.33;3.27;;;;;;;;;;5033768;28;20241;-86
2023/07/02 03:40:51;;;;;;;5.43;3.60;;;;;;;;;;5033799;28;20696;-86
2023/07/02 03:43:18;;;;;;;4.80;3.37;;;;;;;;;;5033587;28;20272;-86
2023/07/02 03:45:45;;;;;;;4.80;3.47;;;;;;;;;;5034066;28;20222;-86
2023/07/02 03:48:12;;;;;;;6.07;3.63;;;;;;;;;;5033341;28;20242;-86
2023/07/02 03:50:39;;;;;;;5.00;3.30;;;;;;;;;;5034286;28;20202;-85
2023/07/02 03:53:07;;;;;;;5.20;4.10;;;;;;;;;;5033867;28;20211;-86
2023/07/02 03:55:35;;;;;;;5.23;3.97;;;;;;;;;;5033895;28;20571;-86
2023/07/02 03:58:02;;;;;;;6.27;3.53;;;;;;;;;;5033191;28;20703;-86
2023/07/02 04:00:29;;;;;;;8.07;3.70;;;;;;;;;;5034141;28;20234;-85
2023/07/02 04:02:56;;;;;;;6.27;3.50;;;;;;;;;;5033361;28;20239;-85
2023/07/02 04:05:23;;;;;;;5.50;3.73;;;;;;;;;;5033956;28;20214;-85
2023/07/02 04:07:50;;;;;;;6.30;4.20;;;;;;;;;;5032753;28;20229;-85
2023/07/02 04:10:17;;;;;;;5.60;4.27;;;;;;;;;;5033917;28;20226;-85
2023/07/02 04:12:46;;;;;;;8.13;4.07;;;;;;;;;;5034044;28;20229;-85
2023/07/02 04:15:13;;;;;;;9.00;4.17;;;;;;;;;;5033646;28;20696;-86
2023/07/02 04:17:40;;;;;;;8.43;4.30;;;;;;;;;;5033689;28;20199;-86
2023/07/02 04:20:08;;;;;;;6.20;3.90;;;;;;;;;;5033050;28;20234;-86
2023/07/02 04:22:35;;;;;;;6.73;3.80;;;;;;;;;;5033684;28;20206;-86
2023/07/02 04:25:02;;;;;;;6.87;4.07;;;;;;;;;;5032972;28;20255;-86
2023/07/02 04:27:29;;;;;;;6.60;4.10;;;;;;;;;;5033357;28;20313;-86
2023/07/02 04:29:57;;;;;;;5.60;3.90;;;;;;;;;;5032680;28;20721;-86
2023/07/02 04:32:25;;;;;;;8.70;4.20;;;;;;;;;;5033454;28;20211;-86
2023/07/02 04:34:52;;;;;;;5.50;3.93;;;;;;;;;;5032545;28;20238;-86
2023/07/02 04:37:19;;;;;;;6.30;4.00;;;;;;;;;;5033666;28;20203;-88
2023/07/02 04:39:46;;;;;;;7.23;4.00;;;;;;;;;;5033780;28;20262;-86
2023/07/02 04:42:14;;;;;;;5.00;3.70;;;;;;;;;;5033503;28;20234;-87
2023/07/02 04:44:43;;;;;;;6.63;4.30;;;;;;;;;;5033137;28;20238;-88
2023/07/02 04:47:11;;;;;;;9.10;4.17;;;;;;;;;;5033614;28;20211;-88
2023/07/02 04:49:38;;;;;;;6.30;4.30;;;;;;;;;;5033747;28;20242;-87
2023/07/02 04:52:06;;;;;;;6.63;4.00;;;;;;;;;;5033302;28;20237;-87
2023/07/02 04:54:33;;;;;;;7.57;4.33;;;;;;;;;;5033258;28;20242;-87
2023/07/02 04:57:00;;;;;;;8.70;4.63;;;;;;;;;;5032750;28;20210;-87
2023/07/02 04:59:27;;;;;;;8.33;4.20;;;;;;;;;;5032237;28;20716;-85
2023/07/02 05:01:54;;;;;;;10.87;5.23;;;;;;;;;;5032715;28;20213;-85
2023/07/02 05:04:22;;;;;;;7.67;5.00;;;;;;;;;;5032245;28;20241;-85
2023/07/02 05:06:49;;;;;;;7.00;4.30;;;;;;;;;;5033250;28;20213;-85
2023/07/02 05:09:16;;;;;;;6.27;4.63;;;;;;;;;;5031954;28;20605;-85
2023/07/02 05:11:43;;;;;;;8.30;4.73;;;;;;;;;;5033121;28;20214;-86
2023/07/02 05:14:10;;;;;;;9.43;5.30;;;;;;;;;;5032144;28;20739;-85
2023/07/02 05:16:37;;;;;;;8.67;5.17;;;;;;;;;;5032693;28;20211;-85
2023/07/02 05:19:04;;;;;;;7.73;4.70;;;;;;;;;;5032174;28;20238;-85
2023/07/02 05:21:33;;;;;;;8.57;4.93;;;;;;;;;;5032499;28;20210;-85
2023/07/02 05:24:00;;;;;;;6.40;4.70;;;;;;;;;;5031918;28;20239;-85
2023/07/02 05:26:27;;;;;;;7.10;5.17;;;;;;;;;;5032595;28;20209;-85
2023/07/02 05:28:54;;;;;;;8.27;4.93;;;;;;;;;;5031501;28;20262;-87
2023/07/02 05:31:22;;;;;;;6.57;4.80;;;;;;;;;;5032027;28;20207;-86
2023/07/02 05:33:49;;;;;;;12.83;6.40;;;;;;;;;;5031705;28;20652;-86
2023/07/02 05:36:16;;;;;;;12.27;5.83;;;;;;;;;;5032283;28;20214;-87
2023/07/02 05:38:44;;;;;;;7.33;5.10;;;;;;;;;;5031843;28;20611;-84
2023/07/02 05:41:11;;;;;;;15.23;6.57;;;;;;;;;;5032811;28;20714;-86
2023/07/02 05:43:38;;;;;;;8.03;5.93;;;;;;;;;;5031695;28;20238;-85
2023/07/02 05:46:05;;;;;;;11.90;5.33;;;;;;;;;;5032020;28;20524;-85
2023/07/02 05:48:32;;;;;;;8.17;5.33;;;;;;;;;;5031102;28;20238;-88
2023/07/02 05:50:59;;;;;;;10.03;5.57;;;;;;;;;;5032376;28;20218;-85
2023/07/02 05:53:26;;;;;;;9.87;6.27;;;;;;;;;;5031856;28;20649;-84
2023/07/02 05:55:55;;;;;;;8.87;5.63;;;;;;;;;;5032401;28;20213;-85
2023/07/02 05:58:22;;;;;;;9.43;5.50;;;;;;;;;;5031518;28;20234;-85
2023/07/02 06:00:49;;;;;;;11.73;6.13;;;;;;;;;;5031651;28;20210;-84
2023/07/02 06:03:19;;;;;;;13.10;6.23;;;;;;;;;;5031604;28;20254;-87
2023/07/02 06:05:48;;;;;;;11.10;6.57;;;;;;;;;;5032878;28;20953;-84
2023/07/02 06:08:15;;;;;;;12.87;6.30;;;;;;;;;;5031219;28;20238;-85
2023/07/02 06:10:42;;;;;;;11.57;6.33;;;;;;;;;;5032054;28;20203;-84
2023/07/02 06:13:11;;;;;;;10.47;5.60;;;;;;;;;;5031387;28;20250;-85
2023/07/02 06:15:38;;;;;;;10.80;6.00;;;;;;;;;;5032015;28;20210;-83
2023/07/02 06:18:05;;;;;;;9.07;5.83;;;;;;;;;;5031120;28;20214;-83
2023/07/02 06:20:32;;;;;;;9.50;6.63;;;;;;;;;;5031718;28;20269;-84
2023/07/02 06:22:59;;;;;;;10.10;6.53;;;;;;;;;;5032677;28;20684;-85
2023/07/02 06:25:26;;;;;;;9.00;6.13;;;;;;;;;;5031707;28;20211;-83
2023/07/02 06:27:55;;;;;;;13.33;6.33;;;;;;;;;;5031028;28;20206;-86
2023/07/02 06:30:23;;;;;;;9.67;6.07;;;;;;;;;;5031730;28;20234;-83
2023/07/02 06:32:50;;;;;;;11.73;6.90;;;;;;;;;;5031079;28;20676;-83
2023/07/02 06:35:17;;;;;;;10.97;6.30;;;;;;;;;;5031618;28;20206;-85
2023/07/02 06:37:44;;;;;;;11.70;6.30;;;;;;;;;;5031611;28;20247;-83
2023/07/02 06:40:12;;;;;;;8.80;6.50;;;;;;;;;;5031017;28;20727;-86
2023/07/02 06:42:39;;;;;;;11.40;6.23;;;;;;;;;;5031442;28;20584;-84
2023/07/02 06:45:07;;;;;;;11.10;6.03;;;;;;;;;;5031127;28;20238;-85
2023/07/02 06:47:35;;;;;;;11.27;6.63;;;;;;;;;;5031486;28;20650;-84
2023/07/02 06:50:02;;;;;;;13.63;6.17;;;;;;;;;;5030879;28;20242;-85
2023/07/02 06:52:29;;;;;;;11.57;7.03;;;;;;;;;;5031530;28;20228;-86
2023/07/02 06:54:56;;;;;;;10.57;6.40;;;;;;;;;;5031077;28;20231;-85
2023/07/02 06:57:24;;;;;;;11.93;6.80;;;;;;;;;;5031222;28;20324;-84
2023/07/02 06:59:51;;;;;;;9.97;6.50;;;;;;;;;;5033235;28;20243;-84
2023/07/02 07:02:18;;;;;;;13.82;6.78;;;;;;;;;;5035295;28;20211;-84
2023/07/02 07:04:46;;;;;;;12.25;6.90;;;;;;;;;;5034343;28;20231;-84
2023/07/02 07:07:14;;;;;;;15.63;7.65;;;;;;;;;;5034888;28;20781;-85
2023/07/02 07:09:41;;;;;;;15.40;7.47;;;;;;;;;;5034095;28;20312;-84
2023/07/02 07:12:08;;;;;;;14.90;6.13;;;;;;;;;;5035028;28;20207;-86
2023/07/02 07:14:35;;;;;;;17.17;6.72;;;;;;;;;;5034211;28;20242;-84
2023/07/02 07:17:02;;;;;;;10.60;6.32;;;;;;;;;;5034763;28;20214;-84
2023/07/02 07:19:29;;;;;;;10.00;6.55;;;;;;;;;;5033570;28;20242;-84
2023/07/02 07:21:58;;;;;;;9.55;6.38;;;;;;;;;;5034414;28;20218;-86
2023/07/02 07:24:25;;;;;;;12.52;6.60;;;;;;;;;;5033824;28;20732;-85
2023/07/02 07:26:52;;;;;;;10.70;6.90;;;;;;;;;;5034473;28;20211;-84
2023/07/02 07:29:19;;;;;;;15.50;7.35;;;;;;;;;;5033318;28;20241;-84
2023/07/02 07:31:46;;;;;;;14.38;7.43;;;;;;;;;;5033812;28;20214;-85
2023/07/02 07:34:14;;;;;;;13.68;6.50;;;;;;;;;;5033095;28;20254;-85
2023/07/02 07:36:41;;;;;;;14.02;6.95;;;;;;;;;;5034031;28;20207;-83
2023/07/02 07:39:09;;;;;;;14.70;6.82;;;;;;;;;;5033337;28;20712;-84
2023/07/02 07:41:36;;;;;;;10.75;7.35;;;;;;;;;;5033760;28;20210;-84
2023/07/02 07:44:03;;;;;;;10.40;6.78;;;;;;;;;;5033412;28;20284;-84
2023/07/02 07:46:30;;;;;;;9.50;6.60;;;;;;;;;;5033052;28;20226;-85
2023/07/02 07:48:57;;;;;;;14.25;6.40;;;;;;;;;;5032933;28;20230;-85
2023/07/02 07:51:24;;;;;;;9.27;6.43;;;;;;;;;;5033403;28;20497;-85
2023/07/02 07:53:51;;;;;;;10.40;6.53;;;;;;;;;;5032751;28;20333;-84
2023/07/02 07:56:20;;;;;;;9.30;6.43;;;;;;;;;;5033435;28;20225;-84
2023/07/02 07:58:47;;;;;;;9.57;6.10;;;;;;;;;;5033136;28;20238;-83
2023/07/02 08:01:14;;;;;;;13.18;7.35;;;;;;;;;;5033941;28;20218;-83
2023/07/02 08:03:41;;;;;;;8.88;6.03;;;;;;;;;;5032736;28;20683;-84
2023/07/02 08:06:08;;;;;;;11.50;7.15;;;;;;;;;;5033597;28;20206;-85
2023/07/02 08:08:35;;;;;;;10.77;6.60;;;;;;;;;;5032919;28;20246;-83
2023/07/02 08:11:02;;;;;;;11.68;6.88;;;;;;;;;;5033021;28;20213;-85
2023/07/02 08:13:30;;;;;;;11.13;7.60;;;;;;;;;;5033300;28;20238;-85
2023/07/02 08:15:57;;;;;;;10.65;6.97;;;;;;;;;;5033665;28;20214;-85
2023/07/02 08:18:24;;;;;;;10.38;6.65;;;;;;;;;;5033132;28;20242;-86
2023/07/02 08:20:51;;;;;;;11.32;6.88;;;;;;;;;;5033314;28;20207;-85
2023/07/02 08:23:18;;;;;;;9.02;6.40;;;;;;;;;;5033166;28;20230;-85
2023/07/02 08:25:45;;;;;;;8.90;6.50;;;;;;;;;;5033279;28;20214;-85
2023/07/02 08:28:13;;;;;;;10.43;6.90;;;;;;;;;;5032652;28;20234;-85
2023/07/02 08:30:41;;;;;;;12.00;6.72;;;;;;;;;;5033066;28;20227;-86
2023/07/02 08:33:08;;;;;;;10.82;7.10;;;;;;;;;;5032987;28;20242;-85
2023/07/02 08:35:35;;;;;;;10.68;6.60;;;;;;;;;;5033094;28;20210;-84
2023/07/02 08:38:02;;;;;;;10.77;7.43;;;;;;;;;;5032323;28;20229;-86
2023/07/02 08:40:29;;;;;;;10.10;6.82;;;;;;;;;;5033649;28;20203;-85
2023/07/02 08:42:56;;;;;;;9.73;6.90;;;;;;;;;;5032865;28;20214;-84
2023/07/02 08:45:25;;;;;;;12.60;6.25;;;;;;;;;;5032975;28;20218;-86
2023/07/02 08:47:56;;;;;;;10.07;7.07;;;;;;;;;;5032137;28;20257;-86
2023/07/02 08:50:23;;;;;;;8.82;6.78;;;;;;;;;;5033515;28;20233;-87
2023/07/02 08:52:50;;;;;;;8.25;6.03;;;;;;;;;;5032806;28;20609;-86
2023/07/02 08:55:17;;;;;;;7.55;5.78;;;;;;;;;;5032826;28;20677;-86
2023/07/02 08:57:51;;;;;;;8.77;6.03;;;;;;;;;;5032977;28;20207;-85
2023/07/02 09:00:19;;;;;;;8.38;6.30;;;;;;;;;;5032536;28;20226;-85
2023/07/02 09:02:47;;;;;;;8.88;5.93;;;;;;;;;;5033144;28;20207;-86
2023/07/02 09:05:15;;;;;;;9.10;5.97;;;;;;;;;;5032619;28;20261;-85
2023/07/02 09:07:46;;;;;;;8.38;5.55;;;;;;;;;;5032420;28;20210;-86
2023/07/02 09:10:13;;;;;;;9.02;6.30;;;;;;;;;;5032287;28;20324;-84
2023/07/02 09:12:40;;;;;;;10.07;5.82;;;;;;;;;;5032820;28;20214;-85
2023/07/02 09:15:07;;;;;;;7.03;5.82;;;;;;;;;;5031888;28;20238;-86
2023/07/02 09:17:35;;;;;;;7.43;5.18;;;;;;;;;;5032248;28;20673;-85
2023/07/02 09:20:04;;;;;;;16.23;6.25;;;;;;;;;;5031699;28;20234;-84
2023/07/02 09:22:33;;;;;;;8.55;5.53;;;;;;;;;;5032561;28;20211;-85
2023/07/02 09:25:00;;;;;;;8.90;5.78;;;;;;;;;;5032113;28;20246;-82
2023/07/02 09:27:37;;;;;;;7.93;5.65;;;;;;;;;;5032307;28;20214;-86
2023/07/02 09:30:08;;;;;;;9.80;6.18;;;;;;;;;;5032395;28;20774;-86
2023/07/02 09:32:35;;;;;;;9.23;5.95;;;;;;;;;;5032517;28;20246;-85
2023/07/02 09:35:04;;;;;;;8.15;6.15;;;;;;;;;;5031429;28;20234;-85
2023/07/02 09:37:32;;;;;;;9.55;5.95;;;;;;;;;;5031842;28;20699;-86
2023/07/02 09:40:00;;;;;;;8.38;5.75;;;;;;;;;;5031663;28;20242;-80
2023/07/02 09:42:27;;;;;;;8.40;5.65;;;;;;;;;;5031925;28;20211;-80
2023/07/02 09:44:56;;;;;;;10.80;5.85;;;;;;;;;;5031122;28;20238;-80
2023/07/02 09:47:23;;;;;;;6.90;5.38;;;;;;;;;;5031809;28;20202;-82
2023/07/02 09:49:51;;;;;;;8.32;5.70;;;;;;;;;;5031301;28;20230;-81
2023/07/02 09:52:18;;;;;;;8.70;5.43;;;;;;;;;;5031890;28;20195;-79
2023/07/02 09:54:47;;;;;;;8.02;5.65;;;;;;;;;;5031134;28;20234;-78
2023/07/02 09:57:14;;;;;;;9.50;5.85;;;;;;;;;;5031578;28;20203;-78
2023/07/02 09:59:42;;;;;;;8.82;6.30;;;;;;;;;;5030870;28;20231;-79
2023/07/02 10:02:10;;;;;;;8.88;5.97;;;;;;;;;;5031975;28;20573;-79
2023/07/02 10:04:43;;;;;;;9.00;6.32;;;;;;;;;;5030977;28;20239;-82
2023/07/02 10:07:10;;;;;;;11.13;6.50;;;;;;;;;;5031554;28;20284;-82
2023/07/02 10:09:38;;;;;;;11.90;6.88;;;;;;;;;;5030969;28;20245;-81
2023/07/02 10:12:18;;;;;;;7.28;5.53;;;;;;;;;;5031760;28;20209;-81
2023/07/02 10:14:45;;;;;;;11.07;7.13;;;;;;;;;;5031011;28;20230;-81
2023/07/02 10:17:24;;;;;;;8.88;6.90;;;;;;;;;;5031343;28;20202;-81
2023/07/02 10:19:52;;;;;;;10.43;6.30;;;;;;;;;;5030851;28;20230;-81
2023/07/02 10:22:19;;;;;;;13.02;6.82;;;;;;;;;;5031485;28;20585;-81
2023/07/02 10:24:52;;;;;;;13.18;6.78;;;;;;;;;;5030918;28;20237;-79
2023/07/02 10:27:21;;;;;;;9.98;6.65;;;;;;;;;;5031261;28;20210;-79
2023/07/02 10:29:51;;;;;;;11.13;6.93;;;;;;;;;;5030712;28;20256;-79
2023/07/02 10:32:28;;;;;;;11.57;7.63;;;;;;;;;;5031495;28;20206;-81
2023/07/02 10:34:55;;;;;;;12.38;7.53;;;;;;;;;;5033923;28;20262;-78
2023/07/02 10:37:22;;;;;;;11.57;7.22;;;;;;;;;;5035093;28;20229;-78
2023/07/02 10:39:51;;;;;;;11.40;7.10;;;;;;;;;;5034569;28;20238;-79
2023/07/02 10:42:18;;;;;;;11.77;7.63;;;;;;;;;;5035320;28;20206;-79
2023/07/02 10:44:51;;;;;;;9.40;7.32;;;;;;;;;;5034371;28;20243;-79
2023/07/02 10:47:18;;;;;;;9.75;7.40;;;;;;;;;;5034979;28;20206;-79
2023/07/02 10:49:45;;;;;;;12.68;7.55;;;;;;;;;;5034393;28;20241;-79
2023/07/02 10:52:12;;;;;;;10.23;6.88;;;;;;;;;;5035232;28;20207;-80
2023/07/02 10:54:42;;;;;;;9.60;7.20;;;;;;;;;;5034405;28;20721;-79
2023/07/02 10:57:10;;;;;;;10.52;7.43;;;;;;;;;;5034745;28;20218;-78
2023/07/02 10:59:37;;;;;;;10.27;7.40;;;;;;;;;;5034252;28;20242;-79
2023/07/02 11:02:06;;;;;;;9.88;7.00;;;;;;;;;;5034743;28;20241;-79
2023/07/02 11:04:33;;;;;;;9.50;6.80;;;;;;;;;;5034180;28;20784;-78
2023/07/02 11:07:01;;;;;;;11.48;7.35;;;;;;;;;;5034487;28;20559;-79
2023/07/02 11:09:28;;;;;;;10.30;7.38;;;;;;;;;;5033726;28;20234;-79
2023/07/02 11:11:55;;;;;;;10.75;7.82;;;;;;;;;;5034595;28;20210;-79
2023/07/02 11:14:29;;;;;;;9.57;7.47;;;;;;;;;;5034049;28;20234;-80
2023/07/02 11:16:56;;;;;;;10.48;7.10;;;;;;;;;;5034361;28;20206;-79
2023/07/02 11:19:25;;;;;;;10.30;7.55;;;;;;;;;;5033980;28;20238;-79
2023/07/02 11:21:53;;;;;;;11.38;8.10;;;;;;;;;;5034437;28;20213;-78
2023/07/02 11:24:28;;;;;;;12.85;8.50;;;;;;;;;;5034143;28;20241;-79
2023/07/02 11:26:55;;;;;;;11.90;7.60;;;;;;;;;;5034287;28;20241;-78
2023/07/02 11:29:22;;;;;;;13.25;7.35;;;;;;;;;;5033707;28;20747;-79
2023/07/02 11:31:49;;;;;;;11.05;7.80;;;;;;;;;;5034237;28;20249;-80
2023/07/02 11:34:17;;;;;;;12.80;7.55;;;;;;;;;;5033912;28;20231;-80
2023/07/02 11:36:45;;;;;;;12.07;7.88;;;;;;;;;;5034093;28;20206;-80
2023/07/02 11:39:13;;;;;;;10.77;7.65;;;;;;;;;;5033473;28;20238;-79
2023/07/02 11:41:41;;;;;;;13.82;8.50;;;;;;;;;;5033971;28;20670;-79
2023/07/02 11:44:08;;;;;;;11.48;7.88;;;;;;;;;;5033473;28;20226;-78
2023/07/02 11:46:35;;;;;;;10.40;7.50;;;;;;;;;;5032535;28;20214;-80
2023/07/02 11:49:04;;;;;;;11.88;8.40;;;;;;;;;;5033094;28;20246;-79
2023/07/02 11:51:31;;;;;;;14.95;8.30;;;;;;;;;;5033819;28;20237;-79
2023/07/02 11:54:00;;;;;;;10.63;8.13;;;;;;;;;;5033342;28;20758;-80
2023/07/02 11:56:27;;;;;;;12.98;8.48;;;;;;;;;;5033594;28;20688;-80
2023/07/02 11:58:54;;;;;;;12.35;8.13;;;;;;;;;;5032985;28;20238;-79
2023/07/02 12:01:21;;;;;;;13.00;8.30;;;;;;;;;;5033780;28;20203;-79
2023/07/02 12:03:48;;;;;;;11.35;8.07;;;;;;;;;;5033054;28;20234;-80
2023/07/02 12:06:15;;;;;;;14.20;8.63;;;;;;;;;;5033813;28;20621;-80
2023/07/02 12:08:42;;;;;;;16.85;8.65;;;;;;;;;;5032785;28;20266;-80
2023/07/02 12:11:10;;;;;;;11.70;8.65;;;;;;;;;;5033717;28;20230;-80
2023/07/02 12:13:37;;;;;;;13.25;8.68;;;;;;;;;;5033054;28;20235;-80
2023/07/02 12:16:05;;;;;;;16.73;9.88;;;;;;;;;;5033558;28;20268;-79
2023/07/02 12:18:33;;;;;;;10.50;8.55;;;;;;;;;;5032755;28;20238;-79
2023/07/02 12:21:00;;;;;;;13.32;8.35;;;;;;;;;;5033396;28;20206;-80
2023/07/02 12:23:27;;;;;;;12.88;8.57;;;;;;;;;;5033024;28;20230;-78
2023/07/02 12:25:54;;;;;;;13.43;8.85;;;;;;;;;;5033188;28;20206;-81
2023/07/02 12:28:22;;;;;;;10.65;8.13;;;;;;;;;;5032662;28;20231;-79
2023/07/02 12:30:49;;;;;;;23.02;8.70;;;;;;;;;;5033287;28;20237;-80
2023/07/02 12:33:16;;;;;;;12.77;8.93;;;;;;;;;;5032820;28;20234;-80
2023/07/02 12:35:43;;;;;;;12.35;8.63;;;;;;;;;;5033083;28;20206;-80
2023/07/02 12:38:10;;;;;;;13.43;9.23;;;;;;;;;;5032342;28;20238;-80
2023/07/02 12:40:37;;;;;;;13.20;8.98;;;;;;;;;;5032991;28;20199;-80
2023/07/02 12:43:05;;;;;;;13.70;9.63;;;;;;;;;;5032752;28;20214;-80
2023/07/02 12:45:33;;;;;;;14.90;9.55;;;;;;;;;;5032825;28;20202;-79
2023/07/02 12:48:00;;;;;;;13.30;9.00;;;;;;;;;;5032224;28;20230;-80
2023/07/02 12:50:27;;;;;;;14.50;8.88;;;;;;;;;;5032752;28;20227;-80
2023/07/02 12:52:54;;;;;;;11.10;8.43;;;;;;;;;;5032264;28;20691;-80
2023/07/02 12:55:21;;;;;;;16.70;9.00;;;;;;;;;;5032620;28;20206;-79
2023/07/02 12:57:48;;;;;;;13.63;8.93;;;;;;;;;;5031432;28;20213;-81
2023/07/02 13:00:15;;;;;;;13.60;9.00;;;;;;;;;;5032589;28;20225;-80
2023/07/02 13:02:44;;;;;;;14.02;9.45;;;;;;;;;;5032934;28;20213;-79
2023/07/02 13:05:11;;;;;;;15.70;9.52;;;;;;;;;;5032200;28;20234;-80
2023/07/02 13:07:38;;;;;;;13.30;9.27;;;;;;;;;;5032535;28;20210;-79
2023/07/02 13:10:05;;;;;;;12.93;8.48;;;;;;;;;;5031825;28;20678;-80
2023/07/02 13:12:32;;;;;;;15.70;9.98;;;;;;;;;;5032501;28;20299;-79
2023/07/02 13:14:59;;;;;;;13.77;8.95;;;;;;;;;;5031732;28;20720;-80
2023/07/02 13:17:26;;;;;;;14.50;9.70;;;;;;;;;;5032359;28;20261;-80
2023/07/02 13:19:56;;;;;;;12.20;8.93;;;;;;;;;;5031735;28;20238;-80
2023/07/02 13:22:23;;;;;;;15.13;8.93;;;;;;;;;;5032435;28;20252;-80
2023/07/02 13:24:50;;;;;;;14.43;9.80;;;;;;;;;;5031797;28;20242;-80
2023/07/02 13:27:18;;;;;;;15.32;10.35;;;;;;;;;;5032151;28;20210;-80
2023/07/02 13:29:45;;;;;;;16.70;9.32;;;;;;;;;;5031672;28;20641;-80
2023/07/02 13:32:12;;;;;;;15.20;9.32;;;;;;;;;;5031991;28;20237;-80
2023/07/02 13:34:39;;;;;;;12.18;8.95;;;;;;;;;;5031626;28;20238;-80
2023/07/02 13:37:08;;;;;;;14.82;10.25;;;;;;;;;;5032172;28;20207;-79
2023/07/02 13:39:35;;;;;;;13.82;9.40;;;;;;;;;;5031427;28;20273;-80
2023/07/02 13:42:02;;;;;;;16.15;9.85;;;;;;;;;;5032128;28;20202;-81
2023/07/02 13:44:29;;;;;;;14.15;9.65;;;;;;;;;;5031650;28;20241;-80
2023/07/02 13:46:57;;;;;;;13.85;9.25;;;;;;;;;;5031894;28;20218;-79
2023/07/02 13:49:24;;;;;;;13.20;8.75;;;;;;;;;;5031338;28;20238;-79
2023/07/02 13:51:51;;;;;;;16.20;9.45;;;;;;;;;;5032090;28;20231;-81
2023/07/02 13:54:19;;;;;;;11.93;8.40;;;;;;;;;;5031487;28;20231;-79
2023/07/02 13:56:47;;;;;;;13.25;9.05;;;;;;;;;;5031655;28;20218;-80
2023/07/02 13:59:16;;;;;;;13.82;8.48;;;;;;;;;;5031093;28;20620;-81
2023/07/02 14:01:43;;;;;;;14.32;10.40;;;;;;;;;;5031641;28;20257;-81
2023/07/02 14:04:10;;;;;;;15.70;9.82;;;;;;;;;;5031386;28;20280;-80
2023/07/02 14:06:37;;;;;;;13.73;9.30;;;;;;;;;;5031782;28;20209;-80
2023/07/02 14:09:05;;;;;;;14.02;9.32;;;;;;;;;;5030300;28;20242;-81
2023/07/02 14:11:33;;;;;;;12.00;9.00;;;;;;;;;;5031526;28;20776;-80
2023/07/02 14:14:00;;;;;;;13.45;8.73;;;;;;;;;;5031040;28;20712;-79
2023/07/02 14:16:28;;;;;;;13.85;9.18;;;;;;;;;;5031558;28;20207;-81
2023/07/02 14:18:55;;;;;;;12.23;8.90;;;;;;;;;;5031284;28;20241;-81
2023/07/02 14:21:23;;;;;;;15.73;9.10;;;;;;;;;;5031678;28;20211;-80
2023/07/02 14:23:50;;;;;;;14.88;9.15;;;;;;;;;;5031017;28;20238;-81
2023/07/02 14:26:17;;;;;;;14.65;9.98;;;;;;;;;;5031411;28;20261;-81
2023/07/02 14:28:44;;;;;;;14.65;9.25;;;;;;;;;;5030933;28;20249;-81
2023/07/02 14:31:11;;;;;;;11.60;8.77;;;;;;;;;;5031507;28;20226;-81
2023/07/02 14:33:40;;;;;;;10.98;8.43;;;;;;;;;;5030907;28;20234;-82
2023/07/02 14:36:07;;;;;;;12.90;8.48;;;;;;;;;;5031497;28;20310;-81
2023/07/02 14:38:35;;;;;;;14.70;8.38;;;;;;;;;;5031070;28;20247;-81